sensor_id;sensor_type;location;lat;lon;timestamp;pressure;altitude;pressure_sealevel;temperature;humidity
57568;BME280;43403;51.948;5.922;2023-02-01T00:02:01;101892.69;;;4.79;100.00
57568;BME280;43403;51.948;5.922;2023-02-01T00:04:27;101892.06;;;4.73;100.00
57568;BME280;43403;51.948;5.922;2023-02-01T00:06:54;101884.19;;;4.75;100.00
57568;BME280;43403;51.948;5.922;2023-02-01T00:09:20;101876.56;;;4.72;100.00
57568;BME280;43403;51.948;5.922;2023-02-01T00:11:46;101863.56;;;4.72;100.00
57568;BME280;43403;51.948;5.922;2023-02-01T00:14:13;101879.91;;;4.74;100.00
57568;BME280;43403;51.948;5.922;2023-02-01T00:16:39;101885.22;;;4.72;100.00
57568;BME280;43403;51.948;5.922;2023-02-01T00:19:07;101869.50;;;4.74;100.00
57568;BME280;43403;51.948;5.922;2023-02-01T00:21:33;101869.44;;;4.75;100.00
57568;BME280;43403;51.948;5.922;2023-02-01T00:24:00;101872.03;;;4.75;100.00
57568;BME280;43403;51.948;5.922;2023-02-01T00:26:33;101860.06;;;4.73;100.00
57568;BME280;43403;51.948;5.922;2023-02-01T00:29:01;101870.25;;;4.76;100.00
57568;BME280;43403;51.948;5.922;2023-02-01T00:31:27;101868.41;;;4.78;100.00
57568;BME280;43403;51.948;5.922;2023-02-01T00:33:54;101859.63;;;4.81;100.00
57568;BME280;43403;51.948;5.922;2023-02-01T00:36:21;101852.94;;;4.77;100.00
57568;BME280;43403;51.948;5.922;2023-02-01T00:38:47;101858.78;;;4.80;100.00
57568;BME280;43403;51.948;5.922;2023-02-01T00:41:15;101858.78;;;4.80;100.00
57568;BME280;43403;51.948;5.922;2023-02-01T00:43:41;101852.66;;;4.81;100.00
57568;BME280;43403;51.948;5.922;2023-02-01T00:46:08;101865.66;;;4.81;100.00
57568;BME280;43403;51.948;5.922;2023-02-01T00:48:35;101868.13;;;4.84;100.00
57568;BME280;43403;51.948;5.922;2023-02-01T00:51:02;101852.75;;;4.80;100.00
57568;BME280;43403;51.948;5.922;2023-02-01T00:53:28;101842.34;;;4.80;100.00
57568;BME280;43403;51.948;5.922;2023-02-01T00:55:55;101842.28;;;4.81;100.00
57568;BME280;43403;51.948;5.922;2023-02-01T00:58:22;101851.84;;;4.81;100.00
57568;BME280;43403;51.948;5.922;2023-02-01T01:01:01;101852.50;;;4.84;100.00
57568;BME280;43403;51.948;5.922;2023-02-01T01:03:30;101844.03;;;4.81;100.00
57568;BME280;43403;51.948;5.922;2023-02-01T01:06:00;101850.06;;;4.81;100.00
57568;BME280;43403;51.948;5.922;2023-02-01T01:08:26;101845.56;;;4.85;100.00
57568;BME280;43403;51.948;5.922;2023-02-01T01:10:53;101847.56;;;4.80;100.00
57568;BME280;43403;51.948;5.922;2023-02-01T01:13:19;101859.44;;;4.84;100.00
57568;BME280;43403;51.948;5.922;2023-02-01T01:15:46;101863.81;;;4.83;100.00
57568;BME280;43403;51.948;5.922;2023-02-01T01:18:12;101859.38;;;4.85;100.00
57568;BME280;43403;51.948;5.922;2023-02-01T01:20:39;101848.91;;;4.87;100.00
57568;BME280;43403;51.948;5.922;2023-02-01T01:23:06;101848.06;;;4.86;100.00
57568;BME280;43403;51.948;5.922;2023-02-01T01:25:39;101843.03;;;4.83;100.00
57568;BME280;43403;51.948;5.922;2023-02-01T01:28:06;101846.47;;;4.84;100.00
57568;BME280;43403;51.948;5.922;2023-02-01T01:30:33;101843.03;;;4.83;100.00
57568;BME280;43403;51.948;5.922;2023-02-01T01:33:00;101840.34;;;4.85;100.00
57568;BME280;43403;51.948;5.922;2023-02-01T01:35:28;101838.66;;;4.84;100.00
57568;BME280;43403;51.948;5.922;2023-02-01T01:37:54;101835.91;;;4.87;100.00
57568;BME280;43403;51.948;5.922;2023-02-01T01:40:21;101824.66;;;4.86;100.00
57568;BME280;43403;51.948;5.922;2023-02-01T01:42:48;101831.53;;;4.87;100.00
57568;BME280;43403;51.948;5.922;2023-02-01T01:45:25;101828.78;;;4.90;100.00
57568;BME280;43403;51.948;5.922;2023-02-01T01:47:53;101820.97;;;4.90;100.00
57568;BME280;43403;51.948;5.922;2023-02-01T01:50:23;101831.38;;;4.90;100.00
57568;BME280;43403;51.948;5.922;2023-02-01T01:52:50;101834.72;;;4.92;100.00
57568;BME280;43403;51.948;5.922;2023-02-01T01:55:18;101824.41;;;4.91;100.00
57568;BME280;43403;51.948;5.922;2023-02-01T01:57:47;101822.72;;;4.90;100.00
57568;BME280;43403;51.948;5.922;2023-02-01T02:00:16;101827.16;;;4.88;100.00
57568;BME280;43403;51.948;5.922;2023-02-01T02:02:44;101828.94;;;4.87;100.00
57568;BME280;43403;51.948;5.922;2023-02-01T02:05:12;101822.16;;;4.85;100.00
57568;BME280;43403;51.948;5.922;2023-02-01T02:07:40;101811.75;;;4.85;100.00
57568;BME280;43403;51.948;5.922;2023-02-01T02:10:09;101811.84;;;4.83;100.00
57568;BME280;43403;51.948;5.922;2023-02-01T02:12:40;101805.06;;;4.81;100.00
57568;BME280;43403;51.948;5.922;2023-02-01T02:15:07;101811.41;;;4.75;100.00
57568;BME280;43403;51.948;5.922;2023-02-01T02:17:36;101802.88;;;4.73;100.00
57568;BME280;43403;51.948;5.922;2023-02-01T02:30:42;101807.06;;;4.75;100.00
57568;BME280;43403;51.948;5.922;2023-02-01T02:35:46;101798.25;;;4.78;100.00
57568;BME280;43403;51.948;5.922;2023-02-01T02:38:49;101797.31;;;4.79;100.00
57568;BME280;43403;51.948;5.922;2023-02-01T02:44:08;101793.31;;;4.73;100.00
57568;BME280;43403;51.948;5.922;2023-02-01T02:46:55;101791.28;;;4.79;100.00
57568;BME280;43403;51.948;5.922;2023-02-01T02:49:54;101778.72;;;4.71;100.00
57568;BME280;43403;51.948;5.922;2023-02-01T02:52:43;101782.16;;;4.71;100.00
57568;BME280;43403;51.948;5.922;2023-02-01T02:55:30;101778.66;;;4.72;100.00
57568;BME280;43403;51.948;5.922;2023-02-01T02:57:59;101774.34;;;4.71;100.00
57568;BME280;43403;51.948;5.922;2023-02-01T03:00:44;101764.03;;;4.70;100.00
57568;BME280;43403;51.948;5.922;2023-02-01T03:03:30;101768.25;;;4.72;100.00
57568;BME280;43403;51.948;5.922;2023-02-01T03:06:16;101769.91;;;4.73;100.00
57568;BME280;43403;51.948;5.922;2023-02-01T03:08:44;101770.66;;;4.75;100.00
57568;BME280;43403;51.948;5.922;2023-02-01T03:11:12;101775.03;;;4.75;100.00
57568;BME280;43403;51.948;5.922;2023-02-01T03:13:51;101761.09;;;4.76;100.00
57568;BME280;43403;51.948;5.922;2023-02-01T03:18:55;101733.25;;;4.78;100.00
57568;BME280;43403;51.948;5.922;2023-02-01T03:24:00;101716.75;;;4.79;100.00
57568;BME280;43403;51.948;5.922;2023-02-01T03:26:28;101736.16;;;4.88;100.00
57568;BME280;43403;51.948;5.922;2023-02-01T03:29:03;101754.38;;;4.88;100.00
57568;BME280;43403;51.948;5.922;2023-02-01T03:31:31;101775.09;;;4.89;100.00
57568;BME280;43403;51.948;5.922;2023-02-01T03:33:58;101767.97;;;4.93;100.00
57568;BME280;43403;51.948;5.922;2023-02-01T03:36:31;101762.69;;;4.94;100.00
57568;BME280;43403;51.948;5.922;2023-02-01T03:39:03;101752.44;;;4.91;100.00
57568;BME280;43403;51.948;5.922;2023-02-01T03:41:38;101754.13;;;4.92;100.00
57568;BME280;43403;51.948;5.922;2023-02-01T03:47:19;101752.34;;;4.93;100.00
57568;BME280;43403;51.948;5.922;2023-02-01T03:49:49;101765.19;;;4.96;100.00
57568;BME280;43403;51.948;5.922;2023-02-01T03:52:33;101758.91;;;5.00;100.00
57568;BME280;43403;51.948;5.922;2023-02-01T03:55:03;101769.19;;;5.02;100.00
57568;BME280;43403;51.948;5.922;2023-02-01T03:57:31;101773.22;;;5.07;100.00
57568;BME280;43403;51.948;5.922;2023-02-01T04:00:19;101768.94;;;5.06;100.00
57568;BME280;43403;51.948;5.922;2023-02-01T04:02:46;101764.66;;;5.05;100.00
57568;BME280;43403;51.948;5.922;2023-02-01T04:05:13;101758.22;;;4.97;100.00
57568;BME280;43403;51.948;5.922;2023-02-01T04:07:40;101764.09;;;5.00;100.00
57568;BME280;43403;51.948;5.922;2023-02-01T04:10:07;101766.84;;;4.97;100.00
57568;BME280;43403;51.948;5.922;2023-02-01T04:12:33;101760.06;;;4.94;100.00
57568;BME280;43403;51.948;5.922;2023-02-01T04:14:59;101765.44;;;4.91;100.00
57568;BME280;43403;51.948;5.922;2023-02-01T04:17:26;101757.63;;;4.91;100.00
57568;BME280;43403;51.948;5.922;2023-02-01T04:19:52;101753.47;;;4.89;100.00
57568;BME280;43403;51.948;5.922;2023-02-01T04:22:20;101755.38;;;4.85;100.00
57568;BME280;43403;51.948;5.922;2023-02-01T04:24:47;101754.47;;;4.86;100.00
57568;BME280;43403;51.948;5.922;2023-02-01T04:27:13;101759.50;;;4.89;100.00
57568;BME280;43403;51.948;5.922;2023-02-01T04:29:39;101759.56;;;4.88;100.00
57568;BME280;43403;51.948;5.922;2023-02-01T04:32:06;101761.06;;;4.92;100.00
57568;BME280;43403;51.948;5.922;2023-02-01T04:34:32;101750.94;;;4.87;100.00
57568;BME280;43403;51.948;5.922;2023-02-01T04:36:58;101755.88;;;4.92;100.00
57568;BME280;43403;51.948;5.922;2023-02-01T04:39:25;101761.84;;;4.94;100.00
57568;BME280;43403;51.948;5.922;2023-02-01T04:41:51;101778.28;;;4.94;100.00
57568;BME280;43403;51.948;5.922;2023-02-01T04:44:18;101770.13;;;5.01;100.00
57568;BME280;43403;51.948;5.922;2023-02-01T04:46:45;101761.91;;;5.08;100.00
57568;BME280;43403;51.948;5.922;2023-02-01T04:49:12;101760.78;;;5.12;100.00
57568;BME280;43403;51.948;5.922;2023-02-01T04:51:39;101756.25;;;5.16;100.00
57568;BME280;43403;51.948;5.922;2023-02-01T04:54:06;101763.63;;;5.24;100.00
57568;BME280;43403;51.948;5.922;2023-02-01T04:56:33;101762.44;;;5.29;100.00
57568;BME280;43403;51.948;5.922;2023-02-01T04:59:00;101762.06;;;5.35;100.00
57568;BME280;43403;51.948;5.922;2023-02-01T05:01:28;101761.78;;;5.40;100.00
57568;BME280;43403;51.948;5.922;2023-02-01T05:03:55;101762.44;;;5.44;100.00
57568;BME280;43403;51.948;5.922;2023-02-01T05:06:21;101769.16;;;5.48;100.00
57568;BME280;43403;51.948;5.922;2023-02-01T05:08:48;101767.88;;;5.55;100.00
57568;BME280;43403;51.948;5.922;2023-02-01T05:11:14;101756.34;;;5.59;100.00
57568;BME280;43403;51.948;5.922;2023-02-01T05:13:59;101769.16;;;5.62;100.00
57568;BME280;43403;51.948;5.922;2023-02-01T05:16:27;101762.22;;;5.63;100.00
57568;BME280;43403;51.948;5.922;2023-02-01T05:18:54;101749.81;;;5.66;100.00
57568;BME280;43403;51.948;5.922;2023-02-01T05:21:20;101751.44;;;5.69;100.00
57568;BME280;43403;51.948;5.922;2023-02-01T05:23:47;101742.59;;;5.71;100.00
57568;BME280;43403;51.948;5.922;2023-02-01T05:26:32;101741.56;;;5.74;100.00
57568;BME280;43403;51.948;5.922;2023-02-01T05:28:58;101739.91;;;5.73;100.00
57568;BME280;43403;51.948;5.922;2023-02-01T05:31:24;101735.44;;;5.75;100.00
57568;BME280;43403;51.948;5.922;2023-02-01T05:33:51;101742.22;;;5.78;100.00
57568;BME280;43403;51.948;5.922;2023-02-01T05:36:17;101734.50;;;5.76;100.00
57568;BME280;43403;51.948;5.922;2023-02-01T05:38:44;101735.81;;;5.83;100.00
57568;BME280;43403;51.948;5.922;2023-02-01T05:41:10;101736.53;;;5.85;100.00
57568;BME280;43403;51.948;5.922;2023-02-01T05:43:36;101754.69;;;5.87;100.00
57568;BME280;43403;51.948;5.922;2023-02-01T05:46:03;101747.72;;;5.87;100.00
57568;BME280;43403;51.948;5.922;2023-02-01T05:48:29;101763.16;;;5.90;100.00
57568;BME280;43403;51.948;5.922;2023-02-01T05:50:55;101774.56;;;5.88;100.00
57568;BME280;43403;51.948;5.922;2023-02-01T05:53:22;101775.31;;;5.90;100.00
57568;BME280;43403;51.948;5.922;2023-02-01T05:55:48;101762.94;;;5.93;100.00
57568;BME280;43403;51.948;5.922;2023-02-01T05:58:15;101766.25;;;5.97;100.00
57568;BME280;43403;51.948;5.922;2023-02-01T06:00:41;101766.91;;;6.01;100.00
57568;BME280;43403;51.948;5.922;2023-02-01T06:03:07;101766.81;;;6.02;100.00
57568;BME280;43403;51.948;5.922;2023-02-01T06:05:33;101764.94;;;6.04;100.00
57568;BME280;43403;51.948;5.922;2023-02-01T06:08:00;101767.63;;;6.03;100.00
57568;BME280;43403;51.948;5.922;2023-02-01T06:10:26;101774.53;;;6.04;100.00
57568;BME280;43403;51.948;5.922;2023-02-01T06:12:52;101771.00;;;6.05;100.00
57568;BME280;43403;51.948;5.922;2023-02-01T06:15:19;101765.78;;;6.05;100.00
57568;BME280;43403;51.948;5.922;2023-02-01T06:17:45;101762.25;;;6.06;100.00
57568;BME280;43403;51.948;5.922;2023-02-01T06:20:12;101762.13;;;6.07;100.00
57568;BME280;43403;51.948;5.922;2023-02-01T06:22:39;101764.00;;;6.05;100.00
57568;BME280;43403;51.948;5.922;2023-02-01T06:25:06;101769.34;;;6.04;100.00
57568;BME280;43403;51.948;5.922;2023-02-01T06:27:33;101761.22;;;6.08;100.00
57568;BME280;43403;51.948;5.922;2023-02-01T06:30:00;101755.94;;;6.10;100.00
57568;BME280;43403;51.948;5.922;2023-02-01T06:32:26;101763.09;;;6.06;100.00
57568;BME280;43403;51.948;5.922;2023-02-01T06:34:53;101754.31;;;6.07;100.00
57568;BME280;43403;51.948;5.922;2023-02-01T06:37:19;101768.28;;;6.06;100.00
57568;BME280;43403;51.948;5.922;2023-02-01T06:39:45;101769.97;;;6.07;100.00
57568;BME280;43403;51.948;5.922;2023-02-01T06:42:12;101769.34;;;6.04;100.00
57568;BME280;43403;51.948;5.922;2023-02-01T06:44:39;101778.63;;;6.08;100.00
57568;BME280;43403;51.948;5.922;2023-02-01T06:47:05;101779.47;;;6.08;100.00
57568;BME280;43403;51.948;5.922;2023-02-01T06:49:34;101783.84;;;6.08;100.00
57568;BME280;43403;51.948;5.922;2023-02-01T06:52:00;101776.78;;;6.10;100.00
57568;BME280;43403;51.948;5.922;2023-02-01T06:54:27;101782.16;;;6.07;100.00
57568;BME280;43403;51.948;5.922;2023-02-01T06:56:53;101786.44;;;6.08;100.00
57568;BME280;43403;51.948;5.922;2023-02-01T06:59:20;101781.69;;;6.14;100.00
57568;BME280;43403;51.948;5.922;2023-02-01T07:01:46;101781.69;;;6.14;100.00
57568;BME280;43403;51.948;5.922;2023-02-01T07:04:13;101779.25;;;6.11;100.00
57568;BME280;43403;51.948;5.922;2023-02-01T07:06:39;101771.44;;;6.11;100.00
57568;BME280;43403;51.948;5.922;2023-02-01T07:09:06;101789.78;;;6.10;100.00
57568;BME280;43403;51.948;5.922;2023-02-01T07:11:33;101791.28;;;6.14;100.00
57568;BME280;43403;51.948;5.922;2023-02-01T07:13:59;101781.59;;;6.16;100.00
57568;BME280;43403;51.948;5.922;2023-02-01T07:16:25;101791.19;;;6.16;100.00
57568;BME280;43403;51.948;5.922;2023-02-01T07:18:52;101787.84;;;6.13;100.00
57568;BME280;43403;51.948;5.922;2023-02-01T07:21:19;101793.88;;;6.14;100.00
57568;BME280;43403;51.948;5.922;2023-02-01T07:23:45;101794.88;;;6.11;100.00
57568;BME280;43403;51.948;5.922;2023-02-01T07:26:12;101786.97;;;6.13;100.00
57568;BME280;43403;51.948;5.922;2023-02-01T07:28:40;101794.25;;;6.08;100.00
57568;BME280;43403;51.948;5.922;2023-02-01T07:31:13;101797.13;;;6.03;100.00
57568;BME280;43403;51.948;5.922;2023-02-01T07:33:41;101780.38;;;6.07;100.00
57568;BME280;43403;51.948;5.922;2023-02-01T07:36:10;101787.75;;;6.01;100.00
57568;BME280;43403;51.948;5.922;2023-02-01T07:38:37;101795.38;;;6.04;100.00
57568;BME280;43403;51.948;5.922;2023-02-01T07:41:04;101786.69;;;6.03;100.00
57568;BME280;43403;51.948;5.922;2023-02-01T07:43:31;101781.78;;;5.99;100.00
57568;BME280;43403;51.948;5.922;2023-02-01T07:45:57;101782.53;;;6.01;100.00
57568;BME280;43403;51.948;5.922;2023-02-01T07:48:24;101789.59;;;5.99;100.00
57568;BME280;43403;51.948;5.922;2023-02-01T07:51:08;101795.56;;;6.01;100.00
57568;BME280;43403;51.948;5.922;2023-02-01T07:53:35;101788.47;;;6.03;100.00
57568;BME280;43403;51.948;5.922;2023-02-01T07:56:01;101791.09;;;6.03;100.00
57568;BME280;43403;51.948;5.922;2023-02-01T07:58:28;101793.22;;;5.96;100.00
57568;BME280;43403;51.948;5.922;2023-02-01T08:00:54;101788.56;;;6.01;100.00
57568;BME280;43403;51.948;5.922;2023-02-01T08:03:39;101782.13;;;5.92;100.00
57568;BME280;43403;51.948;5.922;2023-02-01T08:06:06;101792.53;;;5.92;100.00
57568;BME280;43403;51.948;5.922;2023-02-01T08:08:33;101790.69;;;5.94;100.00
57568;BME280;43403;51.948;5.922;2023-02-01T08:11:00;101800.84;;;5.99;100.00
57568;BME280;43403;51.948;5.922;2023-02-01T08:13:26;101795.63;;;5.99;100.00
57568;BME280;43403;51.948;5.922;2023-02-01T08:15:57;101797.59;;;5.96;100.00
57568;BME280;43403;51.948;5.922;2023-02-01T08:18:23;101799.28;;;5.97;100.00
57568;BME280;43403;51.948;5.922;2023-02-01T08:20:49;101797.41;;;5.99;100.00
57568;BME280;43403;51.948;5.922;2023-02-01T08:23:17;101804.41;;;5.98;100.00
57568;BME280;43403;51.948;5.922;2023-02-01T08:25:43;101810.53;;;5.97;100.00
57568;BME280;43403;51.948;5.922;2023-02-01T08:28:10;101810.44;;;5.99;100.00
57568;BME280;43403;51.948;5.922;2023-02-01T08:30:37;101808.84;;;5.96;100.00
57568;BME280;43403;51.948;5.922;2023-02-01T08:33:05;101818.41;;;5.96;100.00
57568;BME280;43403;51.948;5.922;2023-02-01T08:35:34;101807.16;;;5.95;100.00
57568;BME280;43403;51.948;5.922;2023-02-01T08:38:09;101808.91;;;5.94;100.00
57568;BME280;43403;51.948;5.922;2023-02-01T08:40:35;101800.00;;;5.99;100.00
57568;BME280;43403;51.948;5.922;2023-02-01T08:43:01;101793.88;;;6.00;100.00
57568;BME280;43403;51.948;5.922;2023-02-01T08:45:28;101794.91;;;5.97;100.00
57568;BME280;43403;51.948;5.922;2023-02-01T08:47:58;101808.75;;;5.98;100.00
57568;BME280;43403;51.948;5.922;2023-02-01T08:50:24;101803.28;;;6.02;100.00
57568;BME280;43403;51.948;5.922;2023-02-01T08:52:52;101803.81;;;6.07;100.00
57568;BME280;43403;51.948;5.922;2023-02-01T08:55:18;101797.41;;;6.13;100.00
57568;BME280;43403;51.948;5.922;2023-02-01T08:57:45;101795.38;;;6.18;100.00
57568;BME280;43403;51.948;5.922;2023-02-01T09:00:13;101799.53;;;6.21;100.00
57568;BME280;43403;51.948;5.922;2023-02-01T09:02:39;101794.44;;;6.33;100.00
57568;BME280;43403;51.948;5.922;2023-02-01T09:05:05;101779.31;;;6.39;100.00
57568;BME280;43403;51.948;5.922;2023-02-01T09:07:32;101778.31;;;6.41;100.00
57568;BME280;43403;51.948;5.922;2023-02-01T09:09:59;101781.53;;;6.45;100.00
57568;BME280;43403;51.948;5.922;2023-02-01T09:12:31;101790.56;;;6.53;100.00
57568;BME280;43403;51.948;5.922;2023-02-01T09:14:57;101785.06;;;6.58;100.00
57568;BME280;43403;51.948;5.922;2023-02-01T09:17:26;101774.25;;;6.64;100.00
57568;BME280;43403;51.948;5.922;2023-02-01T09:19:57;101781.88;;;6.67;100.00
57568;BME280;43403;51.948;5.922;2023-02-01T09:22:24;101781.13;;;6.65;100.00
57568;BME280;43403;51.948;5.922;2023-02-01T09:24:51;101784.88;;;6.61;100.00
57568;BME280;43403;51.948;5.922;2023-02-01T09:27:20;101768.28;;;6.62;100.00
57568;BME280;43403;51.948;5.922;2023-02-01T09:29:46;101779.75;;;6.60;100.00
57568;BME280;43403;51.948;5.922;2023-02-01T09:32:19;101771.00;;;6.61;100.00
57568;BME280;43403;51.948;5.922;2023-02-01T09:34:46;101752.28;;;6.68;100.00
57568;BME280;43403;51.948;5.922;2023-02-01T09:37:12;101762.25;;;6.62;100.00
57568;BME280;43403;51.948;5.922;2023-02-01T09:39:39;101753.09;;;6.69;100.00
57568;BME280;43403;51.948;5.922;2023-02-01T09:42:17;101763.88;;;6.77;100.00
57568;BME280;43403;51.948;5.922;2023-02-01T09:44:57;101782.69;;;6.82;100.00
57568;BME280;43403;51.948;5.922;2023-02-01T09:47:26;101768.28;;;6.89;100.00
57568;BME280;43403;51.948;5.922;2023-02-01T09:50:05;101766.56;;;7.03;100.00
57568;BME280;43403;51.948;5.922;2023-02-01T09:52:40;101766.25;;;7.07;100.00
57568;BME280;43403;51.948;5.922;2023-02-01T09:55:13;101791.41;;;7.08;100.00
57568;BME280;43403;51.948;5.922;2023-02-01T09:57:58;101768.38;;;7.15;100.00
57568;BME280;43403;51.948;5.922;2023-02-01T10:00:31;101768.81;;;7.22;100.00
57568;BME280;43403;51.948;5.922;2023-02-01T10:02:59;101761.50;;;7.27;100.00
57568;BME280;43403;51.948;5.922;2023-02-01T10:08:19;101773.06;;;7.23;100.00
57568;BME280;43403;51.948;5.922;2023-02-01T10:10:52;101775.59;;;7.24;100.00
57568;BME280;43403;51.948;5.922;2023-02-01T10:15:53;101767.13;;;7.21;100.00
57568;BME280;43403;51.948;5.922;2023-02-01T10:28:26;101765.00;;;7.13;100.00
57568;BME280;43403;51.948;5.922;2023-02-01T10:30:54;101761.16;;;7.19;100.00
57568;BME280;43403;51.948;5.922;2023-02-01T10:33:26;101767.94;;;7.21;100.00
57568;BME280;43403;51.948;5.922;2023-02-01T10:35:55;101764.00;;;7.16;100.00
57568;BME280;43403;51.948;5.922;2023-02-01T10:38:25;101748.34;;;7.16;100.00
57568;BME280;43403;51.948;5.922;2023-02-01T10:40:53;101744.66;;;7.05;100.00
57568;BME280;43403;51.948;5.922;2023-02-01T10:43:21;101746.09;;;6.97;100.00
57568;BME280;43403;51.948;5.922;2023-02-01T10:45:47;101750.69;;;6.93;100.00
57568;BME280;43403;51.948;5.922;2023-02-01T10:48:13;101748.91;;;6.93;100.00
57568;BME280;43403;51.948;5.922;2023-02-01T10:50:44;101743.25;;;6.87;100.00
57568;BME280;43403;51.948;5.922;2023-02-01T10:53:28;101743.16;;;6.88;100.00
57568;BME280;43403;51.948;5.922;2023-02-01T10:55:57;101753.59;;;6.88;100.00
57568;BME280;43403;51.948;5.922;2023-02-01T10:58:28;101742.44;;;6.86;100.00
57568;BME280;43403;51.948;5.922;2023-02-01T11:03:38;101752.78;;;6.73;100.00
57568;BME280;43403;51.948;5.922;2023-02-01T11:08:51;101755.25;;;6.62;100.00
57568;BME280;43403;51.948;5.922;2023-02-01T11:11:19;101736.38;;;6.59;100.00
57568;BME280;43403;51.948;5.922;2023-02-01T11:13:51;101737.22;;;6.59;100.00
57568;BME280;43403;51.948;5.922;2023-02-01T11:16:18;101741.97;;;6.52;100.00
57568;BME280;43403;51.948;5.922;2023-02-01T11:18:45;101728.84;;;6.54;100.00
57568;BME280;43403;51.948;5.922;2023-02-01T11:21:12;101725.22;;;6.57;100.00
57568;BME280;43403;51.948;5.922;2023-02-01T11:23:41;101715.97;;;6.65;100.00
57568;BME280;43403;51.948;5.922;2023-02-01T11:26:13;101714.50;;;6.61;100.00
57568;BME280;43403;51.948;5.922;2023-02-01T11:28:40;101706.56;;;6.63;100.00
57568;BME280;43403;51.948;5.922;2023-02-01T11:31:10;101702.75;;;6.68;100.00
57568;BME280;43403;51.948;5.922;2023-02-01T11:33:39;101707.81;;;6.70;100.00
57568;BME280;43403;51.948;5.922;2023-02-01T11:36:13;101705.34;;;6.68;100.00
57568;BME280;43403;51.948;5.922;2023-02-01T11:38:40;101702.53;;;6.71;100.00
57568;BME280;43403;51.948;5.922;2023-02-01T11:41:13;101702.63;;;6.70;100.00
57568;BME280;43403;51.948;5.922;2023-02-01T11:43:56;101721.59;;;6.72;100.00
57568;BME280;43403;51.948;5.922;2023-02-01T11:46:28;101709.41;;;6.72;100.00
57568;BME280;43403;51.948;5.922;2023-02-01T11:48:55;101716.19;;;6.75;100.00
57568;BME280;43403;51.948;5.922;2023-02-01T11:51:30;101715.78;;;6.68;100.00
57568;BME280;43403;51.948;5.922;2023-02-01T11:54:08;101719.22;;;6.69;100.00
57568;BME280;43403;51.948;5.922;2023-02-01T11:56:37;101714.91;;;6.68;100.00
57568;BME280;43403;51.948;5.922;2023-02-01T11:59:14;101705.53;;;6.65;100.00
57568;BME280;43403;51.948;5.922;2023-02-01T12:01:55;101720.03;;;6.69;100.00
57568;BME280;43403;51.948;5.922;2023-02-01T12:04:32;101700.88;;;6.70;100.00
57568;BME280;43403;51.948;5.922;2023-02-01T12:07:13;101704.94;;;6.75;100.00
57568;BME280;43403;51.948;5.922;2023-02-01T12:09:44;101689.00;;;6.79;100.00
57568;BME280;43403;51.948;5.922;2023-02-01T12:32:56;101695.53;;;7.12;100.00
57568;BME280;43403;51.948;5.922;2023-02-01T12:40:35;101692.50;;;7.18;100.00
57568;BME280;43403;51.948;5.922;2023-02-01T12:43:23;101689.38;;;7.26;100.00
57568;BME280;43403;51.948;5.922;2023-02-01T12:51:12;101674.94;;;7.33;100.00
57568;BME280;43403;51.948;5.922;2023-02-01T12:56:15;101685.72;;;7.41;100.00
57568;BME280;43403;51.948;5.922;2023-02-01T12:58:46;101681.88;;;7.47;100.00
57568;BME280;43403;51.948;5.922;2023-02-01T13:11:29;101677.25;;;7.50;100.00
57568;BME280;43403;51.948;5.922;2023-02-01T13:16:46;101681.66;;;7.50;100.00
57568;BME280;43403;51.948;5.922;2023-02-01T13:21:46;101670.16;;;7.52;100.00
57568;BME280;43403;51.948;5.922;2023-02-01T13:24:21;101668.50;;;7.51;100.00
57568;BME280;43403;51.948;5.922;2023-02-01T13:26:52;101666.72;;;7.52;100.00
57568;BME280;43403;51.948;5.922;2023-02-01T13:29:19;101670.88;;;7.55;100.00
57568;BME280;43403;51.948;5.922;2023-02-01T13:31:51;101669.94;;;7.56;100.00
57568;BME280;43403;51.948;5.922;2023-02-01T13:36:56;101670.56;;;7.59;100.00
57568;BME280;43403;51.948;5.922;2023-02-01T13:39:43;101680.19;;;7.59;100.00
57568;BME280;43403;51.948;5.922;2023-02-01T13:42:16;101673.09;;;7.61;100.00
57568;BME280;43403;51.948;5.922;2023-02-01T13:44:46;101689.69;;;7.60;100.00
57568;BME280;43403;51.948;5.922;2023-02-01T13:47:18;101687.78;;;7.62;100.00
57568;BME280;43403;51.948;5.922;2023-02-01T13:49:47;101689.78;;;7.58;100.00
57568;BME280;43403;51.948;5.922;2023-02-01T13:52:25;101693.25;;;7.59;100.00
57568;BME280;43403;51.948;5.922;2023-02-01T13:55:03;101693.97;;;7.61;100.00
57568;BME280;43403;51.948;5.922;2023-02-01T13:57:40;101708.91;;;7.59;100.00
57568;BME280;43403;51.948;5.922;2023-02-01T14:00:09;101688.03;;;7.59;100.00
57568;BME280;43403;51.948;5.922;2023-02-01T14:02:49;101691.66;;;7.56;100.00
57568;BME280;43403;51.948;5.922;2023-02-01T14:13:24;101697.31;;;7.63;100.00
57568;BME280;43403;51.948;5.922;2023-02-01T14:24:01;101717.16;;;7.65;100.00
57568;BME280;43403;51.948;5.922;2023-02-01T14:31:52;101713.06;;;7.74;100.00
57568;BME280;43403;51.948;5.922;2023-02-01T14:34:22;101702.75;;;7.72;100.00
57568;BME280;43403;51.948;5.922;2023-02-01T14:36:52;101712.97;;;7.76;100.00
57568;BME280;43403;51.948;5.922;2023-02-01T14:39:21;101702.59;;;7.74;100.00
57568;BME280;43403;51.948;5.922;2023-02-01T14:41:51;101695.50;;;7.76;100.00
57568;BME280;43403;51.948;5.922;2023-02-01T14:44:26;101699.28;;;7.72;100.00
57568;BME280;43403;51.948;5.922;2023-02-01T14:47:03;101693.94;;;7.73;100.00
57568;BME280;43403;51.948;5.922;2023-02-01T14:49:31;101700.22;;;7.71;100.00
57568;BME280;43403;51.948;5.922;2023-02-01T14:51:59;101703.25;;;7.78;100.00
57568;BME280;43403;51.948;5.922;2023-02-01T14:54:26;101702.75;;;7.72;100.00
57568;BME280;43403;51.948;5.922;2023-02-01T14:56:53;101712.31;;;7.72;100.00
57568;BME280;43403;51.948;5.922;2023-02-01T14:59:20;101702.59;;;7.74;100.00
57568;BME280;43403;51.948;5.922;2023-02-01T15:01:53;101717.78;;;7.69;100.00